sensor_id;sensor_type;location;lat;lon;timestamp;P1;durP1;ratioP1;P2;durP2;ratioP2
7027;SDS011;3555;53.248;10.336;2022-08-21T00:02:13;3.85;;;1.50;;
7027;SDS011;3555;53.248;10.336;2022-08-21T00:04:40;3.50;;;1.70;;
7027;SDS011;3555;53.248;10.336;2022-08-21T00:07:09;4.07;;;1.55;;
7027;SDS011;3555;53.248;10.336;2022-08-21T00:09:36;3.25;;;1.40;;
7027;SDS011;3555;53.248;10.336;2022-08-21T00:12:03;3.13;;;1.65;;
7027;SDS011;3555;53.248;10.336;2022-08-21T00:14:31;4.68;;;1.48;;
7027;SDS011;3555;53.248;10.336;2022-08-21T00:16:59;4.40;;;1.50;;
7027;SDS011;3555;53.248;10.336;2022-08-21T00:19:26;2.88;;;1.60;;
7027;SDS011;3555;53.248;10.336;2022-08-21T00:21:54;3.05;;;1.40;;
7027;SDS011;3555;53.248;10.336;2022-08-21T00:24:22;2.42;;;1.35;;
7027;SDS011;3555;53.248;10.336;2022-08-21T00:26:50;3.45;;;1.60;;
7027;SDS011;3555;53.248;10.336;2022-08-21T00:29:17;3.30;;;1.83;;
7027;SDS011;3555;53.248;10.336;2022-08-21T00:31:45;3.80;;;1.73;;
7027;SDS011;3555;53.248;10.336;2022-08-21T00:34:12;5.85;;;1.63;;
7027;SDS011;3555;53.248;10.336;2022-08-21T00:36:39;2.10;;;1.45;;
7027;SDS011;3555;53.248;10.336;2022-08-21T00:39:07;4.75;;;1.42;;
7027;SDS011;3555;53.248;10.336;2022-08-21T00:41:37;3.65;;;1.77;;
7027;SDS011;3555;53.248;10.336;2022-08-21T00:44:05;4.03;;;1.70;;
7027;SDS011;3555;53.248;10.336;2022-08-21T00:46:34;5.78;;;1.42;;
7027;SDS011;3555;53.248;10.336;2022-08-21T00:49:01;2.35;;;1.58;;
7027;SDS011;3555;53.248;10.336;2022-08-21T00:51:28;3.70;;;1.35;;
7027;SDS011;3555;53.248;10.336;2022-08-21T00:54:01;4.32;;;1.70;;
7027;SDS011;3555;53.248;10.336;2022-08-21T00:56:29;2.78;;;1.58;;
7027;SDS011;3555;53.248;10.336;2022-08-21T00:58:57;2.95;;;1.60;;
7027;SDS011;3555;53.248;10.336;2022-08-21T01:01:25;4.18;;;1.85;;
7027;SDS011;3555;53.248;10.336;2022-08-21T01:03:52;4.55;;;1.55;;
7027;SDS011;3555;53.248;10.336;2022-08-21T01:06:19;4.80;;;1.70;;
7027;SDS011;3555;53.248;10.336;2022-08-21T01:08:46;5.90;;;1.85;;
7027;SDS011;3555;53.248;10.336;2022-08-21T01:11:14;3.05;;;1.80;;
7027;SDS011;3555;53.248;10.336;2022-08-21T01:13:41;2.83;;;1.60;;
7027;SDS011;3555;53.248;10.336;2022-08-21T01:16:13;3.08;;;1.60;;
7027;SDS011;3555;53.248;10.336;2022-08-21T01:18:43;2.67;;;1.40;;
7027;SDS011;3555;53.248;10.336;2022-08-21T01:21:12;5.15;;;1.67;;
7027;SDS011;3555;53.248;10.336;2022-08-21T01:23:42;3.10;;;1.60;;
7027;SDS011;3555;53.248;10.336;2022-08-21T01:26:11;5.95;;;1.75;;
7027;SDS011;3555;53.248;10.336;2022-08-21T01:28:42;3.08;;;1.60;;
7027;SDS011;3555;53.248;10.336;2022-08-21T01:31:14;2.67;;;1.60;;
7027;SDS011;3555;53.248;10.336;2022-08-21T01:33:43;3.75;;;1.42;;
7027;SDS011;3555;53.248;10.336;2022-08-21T01:36:11;2.67;;;1.40;;
7027;SDS011;3555;53.248;10.336;2022-08-21T01:38:38;3.92;;;2.13;;
7027;SDS011;3555;53.248;10.336;2022-08-21T01:41:05;2.58;;;1.40;;
7027;SDS011;3555;53.248;10.336;2022-08-21T01:43:32;3.13;;;1.83;;
7027;SDS011;3555;53.248;10.336;2022-08-21T01:45:59;3.63;;;1.60;;
7027;SDS011;3555;53.248;10.336;2022-08-21T01:48:26;4.07;;;1.40;;
7027;SDS011;3555;53.248;10.336;2022-08-21T01:50:52;4.22;;;1.65;;
7027;SDS011;3555;53.248;10.336;2022-08-21T01:53:21;5.45;;;2.17;;
7027;SDS011;3555;53.248;10.336;2022-08-21T01:55:47;7.35;;;1.67;;
7027;SDS011;3555;53.248;10.336;2022-08-21T01:58:14;3.63;;;1.77;;
7027;SDS011;3555;53.248;10.336;2022-08-21T02:00:41;1.73;;;1.33;;
7027;SDS011;3555;53.248;10.336;2022-08-21T02:03:08;3.88;;;1.50;;
7027;SDS011;3555;53.248;10.336;2022-08-21T02:05:35;6.00;;;1.70;;
7027;SDS011;3555;53.248;10.336;2022-08-21T02:08:02;5.30;;;1.50;;
7027;SDS011;3555;53.248;10.336;2022-08-21T02:10:31;2.38;;;1.50;;
7027;SDS011;3555;53.248;10.336;2022-08-21T02:12:58;4.00;;;1.65;;
7027;SDS011;3555;53.248;10.336;2022-08-21T02:15:26;4.78;;;1.83;;
7027;SDS011;3555;53.248;10.336;2022-08-21T02:17:55;4.57;;;1.63;;
7027;SDS011;3555;53.248;10.336;2022-08-21T02:20:26;2.75;;;1.48;;
7027;SDS011;3555;53.248;10.336;2022-08-21T02:22:58;3.65;;;1.70;;
7027;SDS011;3555;53.248;10.336;2022-08-21T02:25:25;4.72;;;1.80;;
7027;SDS011;3555;53.248;10.336;2022-08-21T02:27:54;2.30;;;1.52;;
7027;SDS011;3555;53.248;10.336;2022-08-21T02:30:23;3.03;;;1.60;;
7027;SDS011;3555;53.248;10.336;2022-08-21T02:32:51;2.65;;;1.80;;
7027;SDS011;3555;53.248;10.336;2022-08-21T02:35:18;4.00;;;1.63;;
7027;SDS011;3555;53.248;10.336;2022-08-21T02:37:47;5.28;;;2.75;;
7027;SDS011;3555;53.248;10.336;2022-08-21T02:40:17;4.70;;;1.67;;
7027;SDS011;3555;53.248;10.336;2022-08-21T02:42:46;3.40;;;1.85;;
7027;SDS011;3555;53.248;10.336;2022-08-21T02:45:15;5.50;;;1.88;;
7027;SDS011;3555;53.248;10.336;2022-08-21T02:47:46;2.85;;;1.55;;
7027;SDS011;3555;53.248;10.336;2022-08-21T02:50:16;2.78;;;1.70;;
7027;SDS011;3555;53.248;10.336;2022-08-21T02:52:45;2.78;;;1.60;;
7027;SDS011;3555;53.248;10.336;2022-08-21T02:55:12;3.33;;;2.08;;
7027;SDS011;3555;53.248;10.336;2022-08-21T02:57:39;5.10;;;2.30;;
7027;SDS011;3555;53.248;10.336;2022-08-21T03:00:06;4.32;;;2.15;;
7027;SDS011;3555;53.248;10.336;2022-08-21T03:02:36;4.27;;;1.80;;
7027;SDS011;3555;53.248;10.336;2022-08-21T03:05:03;4.30;;;2.10;;
7027;SDS011;3555;53.248;10.336;2022-08-21T03:07:30;3.78;;;1.85;;
7027;SDS011;3555;53.248;10.336;2022-08-21T03:09:57;3.97;;;1.70;;
7027;SDS011;3555;53.248;10.336;2022-08-21T03:12:24;3.00;;;1.60;;
7027;SDS011;3555;53.248;10.336;2022-08-21T03:14:51;3.38;;;1.90;;
7027;SDS011;3555;53.248;10.336;2022-08-21T03:17:17;4.20;;;1.73;;
7027;SDS011;3555;53.248;10.336;2022-08-21T03:19:46;4.82;;;1.65;;
7027;SDS011;3555;53.248;10.336;2022-08-21T03:22:12;3.90;;;1.90;;
7027;SDS011;3555;53.248;10.336;2022-08-21T03:24:39;3.23;;;1.80;;
7027;SDS011;3555;53.248;10.336;2022-08-21T03:27:06;5.47;;;1.77;;
7027;SDS011;3555;53.248;10.336;2022-08-21T03:29:33;2.80;;;1.50;;
7027;SDS011;3555;53.248;10.336;2022-08-21T03:32:00;3.13;;;1.70;;
7027;SDS011;3555;53.248;10.336;2022-08-21T03:34:27;8.33;;;1.80;;
7027;SDS011;3555;53.248;10.336;2022-08-21T03:36:55;4.30;;;1.50;;
7027;SDS011;3555;53.248;10.336;2022-08-21T03:39:22;4.30;;;1.77;;
7027;SDS011;3555;53.248;10.336;2022-08-21T03:41:49;3.05;;;1.60;;
7027;SDS011;3555;53.248;10.336;2022-08-21T03:44:16;3.43;;;1.70;;
7027;SDS011;3555;53.248;10.336;2022-08-21T03:46:42;4.00;;;1.97;;
7027;SDS011;3555;53.248;10.336;2022-08-21T03:49:09;2.57;;;1.53;;
7027;SDS011;3555;53.248;10.336;2022-08-21T03:51:37;3.47;;;1.63;;
7027;SDS011;3555;53.248;10.336;2022-08-21T03:54:05;3.60;;;1.73;;
7027;SDS011;3555;53.248;10.336;2022-08-21T03:56:32;4.93;;;2.00;;
7027;SDS011;3555;53.248;10.336;2022-08-21T03:58:59;4.27;;;1.70;;
7027;SDS011;3555;53.248;10.336;2022-08-21T04:01:27;3.47;;;2.20;;
7027;SDS011;3555;53.248;10.336;2022-08-21T04:03:54;4.50;;;2.10;;
7027;SDS011;3555;53.248;10.336;2022-08-21T04:06:21;5.93;;;1.97;;
7027;SDS011;3555;53.248;10.336;2022-08-21T04:08:48;4.90;;;2.00;;
7027;SDS011;3555;53.248;10.336;2022-08-21T04:11:16;2.27;;;1.80;;
7027;SDS011;3555;53.248;10.336;2022-08-21T04:13:43;4.23;;;1.70;;
7027;SDS011;3555;53.248;10.336;2022-08-21T04:16:11;5.43;;;1.90;;
7027;SDS011;3555;53.248;10.336;2022-08-21T04:18:38;6.23;;;1.83;;
7027;SDS011;3555;53.248;10.336;2022-08-21T04:21:05;3.97;;;1.80;;
7027;SDS011;3555;53.248;10.336;2022-08-21T04:23:35;2.80;;;1.67;;
7027;SDS011;3555;53.248;10.336;2022-08-21T04:26:01;3.22;;;1.55;;
7027;SDS011;3555;53.248;10.336;2022-08-21T04:28:30;2.37;;;1.77;;
7027;SDS011;3555;53.248;10.336;2022-08-21T04:30:57;2.83;;;1.60;;
7027;SDS011;3555;53.248;10.336;2022-08-21T04:33:24;3.00;;;1.70;;
7027;SDS011;3555;53.248;10.336;2022-08-21T04:35:51;4.23;;;1.83;;
7027;SDS011;3555;53.248;10.336;2022-08-21T04:38:18;3.50;;;1.70;;
7027;SDS011;3555;53.248;10.336;2022-08-21T04:40:45;4.10;;;1.97;;
7027;SDS011;3555;53.248;10.336;2022-08-21T04:43:13;3.90;;;1.80;;
7027;SDS011;3555;53.248;10.336;2022-08-21T04:45:42;4.37;;;2.00;;
7027;SDS011;3555;53.248;10.336;2022-08-21T04:48:12;5.07;;;1.90;;
7027;SDS011;3555;53.248;10.336;2022-08-21T04:50:41;3.97;;;1.97;;
7027;SDS011;3555;53.248;10.336;2022-08-21T04:53:13;3.23;;;1.90;;
7027;SDS011;3555;53.248;10.336;2022-08-21T04:55:43;5.17;;;2.10;;
7027;SDS011;3555;53.248;10.336;2022-08-21T04:58:12;3.90;;;1.73;;
7027;SDS011;3555;53.248;10.336;2022-08-21T05:00:43;3.40;;;1.90;;
7027;SDS011;3555;53.248;10.336;2022-08-21T05:03:12;4.03;;;1.97;;
7027;SDS011;3555;53.248;10.336;2022-08-21T05:05:42;2.97;;;2.00;;
7027;SDS011;3555;53.248;10.336;2022-08-21T05:08:09;3.20;;;1.87;;
7027;SDS011;3555;53.248;10.336;2022-08-21T05:10:40;3.30;;;2.00;;
7027;SDS011;3555;53.248;10.336;2022-08-21T05:13:08;5.53;;;2.00;;
7027;SDS011;3555;53.248;10.336;2022-08-21T05:15:36;3.20;;;1.90;;
7027;SDS011;3555;53.248;10.336;2022-08-21T05:18:04;3.60;;;1.83;;
7027;SDS011;3555;53.248;10.336;2022-08-21T05:20:32;3.03;;;2.20;;
7027;SDS011;3555;53.248;10.336;2022-08-21T05:22:59;4.63;;;2.57;;
7027;SDS011;3555;53.248;10.336;2022-08-21T05:25:26;3.50;;;2.00;;
7027;SDS011;3555;53.248;10.336;2022-08-21T05:27:53;3.67;;;2.23;;
7027;SDS011;3555;53.248;10.336;2022-08-21T05:30:21;6.07;;;2.33;;
7027;SDS011;3555;53.248;10.336;2022-08-21T05:32:47;6.57;;;2.50;;
7027;SDS011;3555;53.248;10.336;2022-08-21T05:35:16;2.93;;;1.90;;
7027;SDS011;3555;53.248;10.336;2022-08-21T05:37:43;4.75;;;2.22;;
7027;SDS011;3555;53.248;10.336;2022-08-21T05:40:10;2.33;;;1.80;;
7027;SDS011;3555;53.248;10.336;2022-08-21T05:42:37;3.53;;;1.90;;
7027;SDS011;3555;53.248;10.336;2022-08-21T05:45:04;2.78;;;2.15;;
7027;SDS011;3555;53.248;10.336;2022-08-21T05:47:31;4.28;;;1.80;;
7027;SDS011;3555;53.248;10.336;2022-08-21T05:49:58;5.18;;;1.88;;
7027;SDS011;3555;53.248;10.336;2022-08-21T05:52:26;2.88;;;1.60;;
7027;SDS011;3555;53.248;10.336;2022-08-21T05:54:53;4.32;;;2.00;;
7027;SDS011;3555;53.248;10.336;2022-08-21T05:57:20;6.45;;;2.25;;
7027;SDS011;3555;53.248;10.336;2022-08-21T05:59:48;2.97;;;1.80;;
7027;SDS011;3555;53.248;10.336;2022-08-21T06:02:16;4.38;;;2.20;;
7027;SDS011;3555;53.248;10.336;2022-08-21T06:04:43;3.38;;;1.65;;
7027;SDS011;3555;53.248;10.336;2022-08-21T06:07:10;3.50;;;2.17;;
7027;SDS011;3555;53.248;10.336;2022-08-21T06:09:39;3.08;;;1.98;;
7027;SDS011;3555;53.248;10.336;2022-08-21T06:12:06;5.97;;;2.10;;
7027;SDS011;3555;53.248;10.336;2022-08-21T06:14:35;3.17;;;1.95;;
7027;SDS011;3555;53.248;10.336;2022-08-21T06:17:03;6.18;;;1.75;;
7027;SDS011;3555;53.248;10.336;2022-08-21T06:19:31;4.55;;;1.77;;
7027;SDS011;3555;53.248;10.336;2022-08-21T06:21:58;4.35;;;2.05;;
7027;SDS011;3555;53.248;10.336;2022-08-21T06:24:25;4.03;;;1.90;;
7027;SDS011;3555;53.248;10.336;2022-08-21T06:26:53;3.15;;;1.90;;
7027;SDS011;3555;53.248;10.336;2022-08-21T06:29:21;2.58;;;1.70;;
7027;SDS011;3555;53.248;10.336;2022-08-21T06:31:49;3.90;;;2.10;;
7027;SDS011;3555;53.248;10.336;2022-08-21T06:34:16;4.65;;;1.92;;
7027;SDS011;3555;53.248;10.336;2022-08-21T06:36:44;4.30;;;1.95;;
7027;SDS011;3555;53.248;10.336;2022-08-21T06:39:11;4.68;;;2.03;;
7027;SDS011;3555;53.248;10.336;2022-08-21T06:41:38;3.70;;;1.90;;
7027;SDS011;3555;53.248;10.336;2022-08-21T06:44:06;6.18;;;1.80;;
7027;SDS011;3555;53.248;10.336;2022-08-21T06:46:33;4.25;;;1.80;;
7027;SDS011;3555;53.248;10.336;2022-08-21T06:49:00;3.63;;;1.67;;
7027;SDS011;3555;53.248;10.336;2022-08-21T06:51:27;3.65;;;1.50;;
7027;SDS011;3555;53.248;10.336;2022-08-21T06:53:54;5.03;;;2.40;;
7027;SDS011;3555;53.248;10.336;2022-08-21T06:56:21;3.72;;;1.80;;
7027;SDS011;3555;53.248;10.336;2022-08-21T06:58:48;4.10;;;1.65;;
7027;SDS011;3555;53.248;10.336;2022-08-21T07:01:16;5.45;;;1.65;;
7027;SDS011;3555;53.248;10.336;2022-08-21T07:03:50;3.60;;;1.67;;
7027;SDS011;3555;53.248;10.336;2022-08-21T07:06:17;5.03;;;1.60;;
7027;SDS011;3555;53.248;10.336;2022-08-21T07:08:44;3.63;;;1.42;;
7027;SDS011;3555;53.248;10.336;2022-08-21T07:11:12;3.05;;;1.67;;
7027;SDS011;3555;53.248;10.336;2022-08-21T07:13:43;2.95;;;1.38;;
7027;SDS011;3555;53.248;10.336;2022-08-21T07:16:10;3.17;;;1.40;;
7027;SDS011;3555;53.248;10.336;2022-08-21T07:18:39;2.83;;;1.60;;
7027;SDS011;3555;53.248;10.336;2022-08-21T07:21:06;4.60;;;1.70;;
7027;SDS011;3555;53.248;10.336;2022-08-21T07:23:36;3.03;;;1.30;;
7027;SDS011;3555;53.248;10.336;2022-08-21T07:26:05;3.33;;;1.30;;
7027;SDS011;3555;53.248;10.336;2022-08-21T07:28:32;3.97;;;1.90;;
7027;SDS011;3555;53.248;10.336;2022-08-21T07:31:00;3.95;;;1.38;;
7027;SDS011;3555;53.248;10.336;2022-08-21T07:33:28;4.20;;;1.42;;
7027;SDS011;3555;53.248;10.336;2022-08-21T07:35:58;3.45;;;1.30;;
7027;SDS011;3555;53.248;10.336;2022-08-21T07:38:25;4.97;;;1.60;;
7027;SDS011;3555;53.248;10.336;2022-08-21T07:40:52;3.60;;;1.30;;
7027;SDS011;3555;53.248;10.336;2022-08-21T07:43:23;4.00;;;1.67;;
7027;SDS011;3555;53.248;10.336;2022-08-21T07:45:50;2.90;;;1.55;;
7027;SDS011;3555;53.248;10.336;2022-08-21T07:48:18;4.60;;;1.45;;
7027;SDS011;3555;53.248;10.336;2022-08-21T07:50:45;10.40;;;1.83;;
7027;SDS011;3555;53.248;10.336;2022-08-21T07:53:15;5.80;;;2.00;;
7027;SDS011;3555;53.248;10.336;2022-08-21T07:55:42;3.60;;;1.42;;
7027;SDS011;3555;53.248;10.336;2022-08-21T07:58:09;3.30;;;1.50;;
7027;SDS011;3555;53.248;10.336;2022-08-21T08:00:35;2.45;;;1.25;;
7027;SDS011;3555;53.248;10.336;2022-08-21T08:03:02;3.78;;;1.35;;
7027;SDS011;3555;53.248;10.336;2022-08-21T08:05:29;4.88;;;1.52;;
7027;SDS011;3555;53.248;10.336;2022-08-21T08:07:57;3.80;;;1.48;;
7027;SDS011;3555;53.248;10.336;2022-08-21T08:10:25;3.10;;;1.55;;
7027;SDS011;3555;53.248;10.336;2022-08-21T08:12:53;4.00;;;1.52;;
7027;SDS011;3555;53.248;10.336;2022-08-21T08:15:21;3.90;;;1.80;;
7027;SDS011;3555;53.248;10.336;2022-08-21T08:17:49;7.22;;;2.03;;
7027;SDS011;3555;53.248;10.336;2022-08-21T08:20:16;4.47;;;2.05;;
7027;SDS011;3555;53.248;10.336;2022-08-21T08:22:45;4.70;;;2.50;;
7027;SDS011;3555;53.248;10.336;2022-08-21T08:25:13;5.10;;;2.50;;
7027;SDS011;3555;53.248;10.336;2022-08-21T08:27:42;3.88;;;1.90;;
7027;SDS011;3555;53.248;10.336;2022-08-21T08:30:10;3.15;;;1.95;;
7027;SDS011;3555;53.248;10.336;2022-08-21T08:32:39;3.30;;;1.65;;
7027;SDS011;3555;53.248;10.336;2022-08-21T08:35:07;3.08;;;1.33;;
7027;SDS011;3555;53.248;10.336;2022-08-21T08:37:35;3.90;;;1.52;;
7027;SDS011;3555;53.248;10.336;2022-08-21T08:40:05;4.53;;;1.80;;
7027;SDS011;3555;53.248;10.336;2022-08-21T08:42:33;5.47;;;1.88;;
7027;SDS011;3555;53.248;10.336;2022-08-21T08:45:06;3.40;;;1.50;;
7027;SDS011;3555;53.248;10.336;2022-08-21T08:47:36;4.93;;;1.75;;
7027;SDS011;3555;53.248;10.336;2022-08-21T08:50:07;6.85;;;1.90;;
7027;SDS011;3555;53.248;10.336;2022-08-21T08:52:40;4.40;;;1.73;;
7027;SDS011;3555;53.248;10.336;2022-08-21T08:55:13;4.30;;;1.40;;
7027;SDS011;3555;53.248;10.336;2022-08-21T08:57:44;6.03;;;1.40;;
7027;SDS011;3555;53.248;10.336;2022-08-21T09:00:16;3.13;;;1.25;;
7027;SDS011;3555;53.248;10.336;2022-08-21T09:02:44;4.35;;;1.67;;
7027;SDS011;3555;53.248;10.336;2022-08-21T09:05:17;5.88;;;1.88;;
7027;SDS011;3555;53.248;10.336;2022-08-21T09:07:50;7.28;;;1.73;;
7027;SDS011;3555;53.248;10.336;2022-08-21T09:10:29;5.72;;;1.70;;
7027;SDS011;3555;53.248;10.336;2022-08-21T09:13:16;3.55;;;1.63;;
7027;SDS011;3555;53.248;10.336;2022-08-21T09:15:50;4.10;;;1.75;;
7027;SDS011;3555;53.248;10.336;2022-08-21T09:18:26;6.55;;;1.60;;
7027;SDS011;3555;53.248;10.336;2022-08-21T09:21:07;5.90;;;1.60;;
7027;SDS011;3555;53.248;10.336;2022-08-21T09:23:45;8.73;;;1.80;;
7027;SDS011;3555;53.248;10.336;2022-08-21T09:26:18;3.55;;;1.52;;
7027;SDS011;3555;53.248;10.336;2022-08-21T09:28:50;5.43;;;1.45;;
7027;SDS011;3555;53.248;10.336;2022-08-21T09:31:23;5.13;;;1.50;;
7027;SDS011;3555;53.248;10.336;2022-08-21T09:33:56;4.85;;;1.70;;
7027;SDS011;3555;53.248;10.336;2022-08-21T09:36:25;4.20;;;1.50;;
7027;SDS011;3555;53.248;10.336;2022-08-21T09:39:00;6.32;;;1.70;;
7027;SDS011;3555;53.248;10.336;2022-08-21T09:41:27;3.60;;;1.38;;
7027;SDS011;3555;53.248;10.336;2022-08-21T09:43:56;4.95;;;1.50;;
7027;SDS011;3555;53.248;10.336;2022-08-21T09:46:25;5.50;;;1.70;;
7027;SDS011;3555;53.248;10.336;2022-08-21T09:48:53;4.57;;;1.60;;
7027;SDS011;3555;53.248;10.336;2022-08-21T09:51:23;4.97;;;1.67;;
7027;SDS011;3555;53.248;10.336;2022-08-21T09:53:52;4.32;;;1.58;;
7027;SDS011;3555;53.248;10.336;2022-08-21T09:56:31;4.30;;;1.55;;
7027;SDS011;3555;53.248;10.336;2022-08-21T09:59:19;4.60;;;1.40;;
7027;SDS011;3555;53.248;10.336;2022-08-21T10:01:52;4.80;;;1.75;;
7027;SDS011;3555;53.248;10.336;2022-08-21T10:04:21;6.95;;;1.88;;
7027;SDS011;3555;53.248;10.336;2022-08-21T10:06:50;4.35;;;1.90;;
7027;SDS011;3555;53.248;10.336;2022-08-21T10:09:18;3.65;;;1.45;;
7027;SDS011;3555;53.248;10.336;2022-08-21T10:11:49;5.15;;;1.80;;
7027;SDS011;3555;53.248;10.336;2022-08-21T10:14:24;5.72;;;1.90;;
7027;SDS011;3555;53.248;10.336;2022-08-21T10:17:07;5.05;;;1.90;;
7027;SDS011;3555;53.248;10.336;2022-08-21T10:19:44;5.10;;;1.80;;
7027;SDS011;3555;53.248;10.336;2022-08-21T10:22:22;7.32;;;1.77;;
7027;SDS011;3555;53.248;10.336;2022-08-21T10:25:01;5.70;;;2.05;;
7027;SDS011;3555;53.248;10.336;2022-08-21T10:27:37;5.43;;;1.70;;
7027;SDS011;3555;53.248;10.336;2022-08-21T10:30:12;7.05;;;4.85;;
7027;SDS011;3555;53.248;10.336;2022-08-21T10:32:55;4.95;;;2.30;;
7027;SDS011;3555;53.248;10.336;2022-08-21T10:35:30;5.43;;;2.22;;
7027;SDS011;3555;53.248;10.336;2022-08-21T10:38:05;3.58;;;1.70;;
7027;SDS011;3555;53.248;10.336;2022-08-21T10:40:56;5.25;;;1.88;;
7027;SDS011;3555;53.248;10.336;2022-08-21T10:43:29;4.95;;;1.75;;
7027;SDS011;3555;53.248;10.336;2022-08-21T10:46:03;6.05;;;1.83;;
7027;SDS011;3555;53.248;10.336;2022-08-21T10:48:39;3.38;;;1.50;;
7027;SDS011;3555;53.248;10.336;2022-08-21T10:51:15;5.28;;;1.63;;
7027;SDS011;3555;53.248;10.336;2022-08-21T10:53:55;5.90;;;1.38;;
7027;SDS011;3555;53.248;10.336;2022-08-21T10:56:28;7.60;;;1.65;;
7027;SDS011;3555;53.248;10.336;2022-08-21T10:59:00;4.55;;;1.80;;
7027;SDS011;3555;53.248;10.336;2022-08-21T11:01:34;4.10;;;1.60;;
7027;SDS011;3555;53.248;10.336;2022-08-21T11:04:11;4.03;;;1.60;;
7027;SDS011;3555;53.248;10.336;2022-08-21T11:06:44;5.15;;;1.70;;
7027;SDS011;3555;53.248;10.336;2022-08-21T11:09:15;5.32;;;1.90;;
7027;SDS011;3555;53.248;10.336;2022-08-21T11:11:46;5.03;;;1.63;;
7027;SDS011;3555;53.248;10.336;2022-08-21T11:14:20;5.60;;;1.92;;
7027;SDS011;3555;53.248;10.336;2022-08-21T11:16:53;4.30;;;1.65;;
7027;SDS011;3555;53.248;10.336;2022-08-21T11:19:30;3.17;;;1.70;;
7027;SDS011;3555;53.248;10.336;2022-08-21T11:22:02;2.85;;;1.48;;
7027;SDS011;3555;53.248;10.336;2022-08-21T11:24:35;3.80;;;1.40;;
7027;SDS011;3555;53.248;10.336;2022-08-21T11:27:11;4.15;;;1.50;;
7027;SDS011;3555;53.248;10.336;2022-08-21T11:29:46;4.35;;;1.30;;
7027;SDS011;3555;53.248;10.336;2022-08-21T11:32:31;3.78;;;1.30;;
7027;SDS011;3555;53.248;10.336;2022-08-21T11:35:16;5.90;;;1.42;;
7027;SDS011;3555;53.248;10.336;2022-08-21T11:37:50;3.53;;;1.52;;
7027;SDS011;3555;53.248;10.336;2022-08-21T11:40:31;2.55;;;1.23;;
7027;SDS011;3555;53.248;10.336;2022-08-21T11:43:11;4.18;;;1.50;;
7027;SDS011;3555;53.248;10.336;2022-08-21T11:45:44;3.28;;;1.33;;
7027;SDS011;3555;53.248;10.336;2022-08-21T11:48:16;3.85;;;1.20;;
7027;SDS011;3555;53.248;10.336;2022-08-21T11:50:56;3.83;;;1.20;;
7027;SDS011;3555;53.248;10.336;2022-08-21T11:53:24;3.80;;;1.17;;
7027;SDS011;3555;53.248;10.336;2022-08-21T11:55:58;3.15;;;1.27;;
7027;SDS011;3555;53.248;10.336;2022-08-21T11:58:30;2.40;;;1.20;;
7027;SDS011;3555;53.248;10.336;2022-08-21T12:01:03;2.97;;;1.25;;
7027;SDS011;3555;53.248;10.336;2022-08-21T12:03:34;1.98;;;1.20;;
7027;SDS011;3555;53.248;10.336;2022-08-21T12:06:06;3.60;;;1.30;;
7027;SDS011;3555;53.248;10.336;2022-08-21T12:08:35;2.30;;;0.90;;
7027;SDS011;3555;53.248;10.336;2022-08-21T12:11:04;3.03;;;1.30;;
7027;SDS011;3555;53.248;10.336;2022-08-21T12:13:33;3.42;;;1.33;;
7027;SDS011;3555;53.248;10.336;2022-08-21T12:16:05;3.38;;;1.30;;
7027;SDS011;3555;53.248;10.336;2022-08-21T12:18:33;4.75;;;1.50;;
7027;SDS011;3555;53.248;10.336;2022-08-21T12:21:04;2.55;;;0.93;;
7027;SDS011;3555;53.248;10.336;2022-08-21T12:23:47;2.75;;;1.20;;
7027;SDS011;3555;53.248;10.336;2022-08-21T12:26:26;2.78;;;1.23;;
7027;SDS011;3555;53.248;10.336;2022-08-21T12:29:05;2.28;;;1.20;;
7027;SDS011;3555;53.248;10.336;2022-08-21T12:31:46;2.22;;;1.10;;
7027;SDS011;3555;53.248;10.336;2022-08-21T12:34:19;1.90;;;1.10;;
7027;SDS011;3555;53.248;10.336;2022-08-21T12:36:53;3.25;;;1.30;;
7027;SDS011;3555;53.248;10.336;2022-08-21T12:39:23;3.35;;;1.27;;
7027;SDS011;3555;53.248;10.336;2022-08-21T12:41:53;2.95;;;0.98;;
7027;SDS011;3555;53.248;10.336;2022-08-21T12:44:26;4.03;;;1.30;;
7027;SDS011;3555;53.248;10.336;2022-08-21T12:46:59;2.88;;;1.40;;
7027;SDS011;3555;53.248;10.336;2022-08-21T12:49:30;3.40;;;1.38;;
7027;SDS011;3555;53.248;10.336;2022-08-21T12:52:03;4.80;;;1.40;;
7027;SDS011;3555;53.248;10.336;2022-08-21T12:54:38;3.10;;;1.20;;
7027;SDS011;3555;53.248;10.336;2022-08-21T12:57:07;2.28;;;1.02;;
7027;SDS011;3555;53.248;10.336;2022-08-21T12:59:37;2.38;;;1.10;;
7027;SDS011;3555;53.248;10.336;2022-08-21T13:02:09;3.17;;;1.20;;
7027;SDS011;3555;53.248;10.336;2022-08-21T13:04:41;2.65;;;0.90;;
7027;SDS011;3555;53.248;10.336;2022-08-21T13:07:12;2.65;;;1.20;;
7027;SDS011;3555;53.248;10.336;2022-08-21T13:09:43;3.30;;;1.20;;
7027;SDS011;3555;53.248;10.336;2022-08-21T13:12:13;3.22;;;1.02;;
7027;SDS011;3555;53.248;10.336;2022-08-21T13:14:42;2.78;;;1.33;;
7027;SDS011;3555;53.248;10.336;2022-08-21T13:17:12;2.63;;;1.02;;
7027;SDS011;3555;53.248;10.336;2022-08-21T13:19:41;2.97;;;1.10;;
7027;SDS011;3555;53.248;10.336;2022-08-21T13:22:13;2.25;;;1.17;;
7027;SDS011;3555;53.248;10.336;2022-08-21T13:24:41;3.28;;;1.20;;
7027;SDS011;3555;53.248;10.336;2022-08-21T13:27:19;1.77;;;1.00;;
7027;SDS011;3555;53.248;10.336;2022-08-21T13:29:47;3.35;;;1.10;;
7027;SDS011;3555;53.248;10.336;2022-08-21T13:32:18;2.72;;;1.20;;
7027;SDS011;3555;53.248;10.336;2022-08-21T13:34:51;2.72;;;0.90;;
7027;SDS011;3555;53.248;10.336;2022-08-21T13:37:20;3.40;;;1.00;;
7027;SDS011;3555;53.248;10.336;2022-08-21T13:39:49;2.42;;;1.17;;
7027;SDS011;3555;53.248;10.336;2022-08-21T13:42:17;3.30;;;1.10;;
7027;SDS011;3555;53.248;10.336;2022-08-21T13:44:45;2.40;;;0.93;;
7027;SDS011;3555;53.248;10.336;2022-08-21T13:47:15;2.10;;;0.95;;
7027;SDS011;3555;53.248;10.336;2022-08-21T13:49:46;3.72;;;1.20;;
7027;SDS011;3555;53.248;10.336;2022-08-21T13:52:15;2.22;;;1.17;;
7027;SDS011;3555;53.248;10.336;2022-08-21T13:54:51;2.40;;;1.00;;
7027;SDS011;3555;53.248;10.336;2022-08-21T13:57:24;2.85;;;1.15;;
7027;SDS011;3555;53.248;10.336;2022-08-21T13:59:52;3.25;;;1.27;;
7027;SDS011;3555;53.248;10.336;2022-08-21T14:02:19;3.08;;;1.05;;
7027;SDS011;3555;53.248;10.336;2022-08-21T14:04:50;2.33;;;1.17;;
7027;SDS011;3555;53.248;10.336;2022-08-21T14:07:22;2.70;;;1.10;;
7027;SDS011;3555;53.248;10.336;2022-08-21T14:09:53;2.42;;;1.10;;
7027;SDS011;3555;53.248;10.336;2022-08-21T14:12:24;2.78;;;1.23;;
7027;SDS011;3555;53.248;10.336;2022-08-21T14:14:53;2.83;;;1.23;;
7027;SDS011;3555;53.248;10.336;2022-08-21T14:17:26;4.60;;;1.23;;
7027;SDS011;3555;53.248;10.336;2022-08-21T14:19:54;3.30;;;1.30;;
7027;SDS011;3555;53.248;10.336;2022-08-21T14:22:36;3.42;;;1.08;;
7027;SDS011;3555;53.248;10.336;2022-08-21T14:25:07;4.38;;;1.25;;
7027;SDS011;3555;53.248;10.336;2022-08-21T14:27:38;3.08;;;1.15;;
7027;SDS011;3555;53.248;10.336;2022-08-21T14:30:11;2.92;;;1.23;;
7027;SDS011;3555;53.248;10.336;2022-08-21T14:32:44;5.07;;;1.50;;
7027;SDS011;3555;53.248;10.336;2022-08-21T14:35:12;2.70;;;1.27;;
7027;SDS011;3555;53.248;10.336;2022-08-21T14:37:41;2.85;;;1.20;;
7027;SDS011;3555;53.248;10.336;2022-08-21T14:40:10;2.38;;;1.10;;
7027;SDS011;3555;53.248;10.336;2022-08-21T14:42:37;4.57;;;1.33;;
7027;SDS011;3555;53.248;10.336;2022-08-21T14:45:07;3.60;;;1.23;;
7027;SDS011;3555;53.248;10.336;2022-08-21T14:47:41;3.28;;;1.08;;
7027;SDS011;3555;53.248;10.336;2022-08-21T14:50:09;3.35;;;1.40;;
7027;SDS011;3555;53.248;10.336;2022-08-21T14:52:37;2.75;;;1.00;;
7027;SDS011;3555;53.248;10.336;2022-08-21T14:55:04;3.58;;;1.10;;
7027;SDS011;3555;53.248;10.336;2022-08-21T14:57:34;4.65;;;1.20;;
7027;SDS011;3555;53.248;10.336;2022-08-21T15:00:01;3.78;;;1.13;;
7027;SDS011;3555;53.248;10.336;2022-08-21T15:02:30;2.70;;;1.23;;
7027;SDS011;3555;53.248;10.336;2022-08-21T15:04:56;3.05;;;1.10;;
7027;SDS011;3555;53.248;10.336;2022-08-21T15:07:23;3.00;;;1.10;;
7027;SDS011;3555;53.248;10.336;2022-08-21T15:09:50;4.25;;;1.42;;
7027;SDS011;3555;53.248;10.336;2022-08-21T15:12:17;2.60;;;1.30;;
7027;SDS011;3555;53.248;10.336;2022-08-21T15:14:46;2.80;;;1.00;;
7027;SDS011;3555;53.248;10.336;2022-08-21T15:17:12;4.22;;;1.10;;